createdAt,value
2019-02-21T00:01:37.939Z,99624.03
2019-02-21T00:04:27.558Z,99621.26
2019-02-21T00:07:16.726Z,99626.94
2019-02-21T00:10:06.514Z,99629.66
2019-02-21T00:12:56.018Z,99623.80
2019-02-21T00:15:45.521Z,99626.83
2019-02-21T00:18:34.990Z,99625.55
2019-02-21T00:21:24.277Z,99629.16
2019-02-21T00:24:13.871Z,99632.38
2019-02-21T00:27:03.324Z,99634.41
2019-02-21T00:29:52.642Z,99636.10
2019-02-21T00:32:42.211Z,99629.91
2019-02-21T00:35:32.838Z,99632.80
2019-02-21T00:38:22.180Z,99632.34
2019-02-21T00:41:12.181Z,99628.50
2019-02-21T00:44:01.503Z,99546.91
2019-02-21T00:46:51.069Z,99630.19
2019-02-21T00:49:40.598Z,99631.38
2019-02-21T00:52:31.500Z,99633.89
2019-02-21T00:55:20.975Z,99631.32
2019-02-21T00:58:10.586Z,99630.49
2019-02-21T01:00:59.840Z,99633.18
2019-02-21T01:03:49.165Z,99637.84
2019-02-21T01:06:38.349Z,99632.72
2019-02-21T01:09:27.643Z,99626.81
2019-02-21T01:12:17.093Z,99630.97
2019-02-21T01:15:08.405Z,99625.73
2019-02-21T01:17:57.784Z,99633.03
2019-02-21T01:20:47.860Z,99632.70
2019-02-21T01:23:37.479Z,99634.34
2019-02-21T01:26:26.927Z,99639.30
2019-02-21T01:29:16.190Z,99636.73
2019-02-21T01:32:05.680Z,99632.63
2019-02-21T01:34:55.267Z,99630.85
2019-02-21T01:37:45.670Z,99629.40
2019-02-21T01:40:34.894Z,99636.00
2019-02-21T01:43:24.358Z,99637.20
2019-02-21T01:46:13.712Z,99630.33
2019-02-21T01:49:03.175Z,99628.67
2019-02-21T01:51:52.475Z,99636.41
2019-02-21T01:54:41.905Z,99631.95
2019-02-21T01:57:31.606Z,99630.63
2019-02-21T02:00:20.828Z,99635.41
2019-02-21T02:03:10.333Z,99634.42
2019-02-21T02:05:59.926Z,99632.57
2019-02-21T02:08:49.629Z,99635.55
2019-02-21T02:11:38.818Z,99629.56
2019-02-21T02:14:28.579Z,99640.10
2019-02-21T02:17:17.857Z,99633.00
2019-02-21T02:20:07.691Z,99633.63
2019-02-21T02:22:57.187Z,99641.55
2019-02-21T02:25:46.748Z,99635.81
2019-02-21T02:28:36.114Z,99635.81
2019-02-21T02:31:25.547Z,99638.16
2019-02-21T02:34:15.179Z,99640.47
2019-02-21T02:37:04.704Z,99642.12
2019-02-21T02:39:54.998Z,99633.53
2019-02-21T02:42:46.147Z,99639.77
2019-02-21T02:45:35.431Z,99640.47
2019-02-21T02:48:24.950Z,99637.63
2019-02-21T02:51:14.666Z,99634.81
2019-02-21T02:54:04.115Z,99637.45
2019-02-21T02:56:53.579Z,99641.42
2019-02-21T02:59:42.852Z,99644.06
2019-02-21T03:02:32.417Z,99642.91
2019-02-21T03:05:21.718Z,99648.03
2019-02-21T03:08:11.209Z,99646.84
2019-02-21T03:11:00.970Z,99650.60
2019-02-21T03:13:50.414Z,99646.34
2019-02-21T03:16:39.895Z,99650.44
2019-02-21T03:19:29.476Z,99644.95
2019-02-21T03:22:18.715Z,99651.56
2019-02-21T03:25:08.574Z,99656.35
2019-02-21T03:27:58.167Z,99652.22
2019-02-21T03:30:47.761Z,99664.25
2019-02-21T03:33:37.127Z,99664.55
2019-02-21T03:36:26.669Z,99662.73
2019-02-21T03:39:16.223Z,99667.52
2019-02-21T03:42:05.951Z,99671.81
2019-02-21T03:44:55.239Z,99675.94
2019-02-21T03:47:44.778Z,99668.20
2019-02-21T03:50:34.264Z,99681.42
2019-02-21T03:53:23.510Z,99677.62
2019-02-21T03:56:12.952Z,99671.68
2019-02-21T03:59:02.255Z,99677.62
2019-02-21T04:01:51.480Z,99666.92
2019-02-21T04:04:40.624Z,99672.41
2019-02-21T04:07:30.335Z,99666.79
2019-02-21T04:10:19.771Z,99668.80
2019-02-21T04:13:09.142Z,99665.20
2019-02-21T04:15:58.495Z,99673.30
2019-02-21T04:18:47.811Z,99668.63
2019-02-21T04:21:37.267Z,99673.95
2019-02-21T04:24:26.603Z,99671.03
2019-02-21T04:27:16.446Z,99664.47
2019-02-21T04:30:06.281Z,99659.54
2019-02-21T04:32:55.807Z,99653.46
2019-02-21T04:35:45.392Z,99652.94
2019-02-21T04:38:34.990Z,99654.25
2019-02-21T04:41:24.261Z,99651.31
2019-02-21T04:44:14.776Z,99659.90
2019-02-21T04:47:04.734Z,99658.91
2019-02-21T04:49:54.092Z,99658.28
2019-02-21T04:52:43.397Z,99653.69
2019-02-21T04:55:32.616Z,99652.67
2019-02-21T04:58:21.912Z,99651.97
2019-02-21T05:01:11.476Z,99645.70
2019-02-21T05:04:00.905Z,99641.25
2019-02-21T05:06:50.612Z,99637.78
2019-02-21T05:09:40.186Z,99637.09
2019-02-21T05:12:29.818Z,99640.06
2019-02-21T05:15:19.123Z,99633.09
2019-02-21T05:18:08.677Z,99638.84
2019-02-21T05:20:58.200Z,99642.61
2019-02-21T05:23:47.956Z,99645.38
2019-02-21T05:26:44.189Z,99651.49
2019-02-21T05:29:33.488Z,99643.56
2019-02-21T05:32:41.096Z,99649.81
2019-02-21T05:35:43.417Z,99643.20
2019-02-21T05:38:54.689Z,99644.52
2019-02-21T05:42:09.159Z,99643.37
2019-02-21T05:45:21.008Z,99640.23
2019-02-21T05:48:26.370Z,99653.14
2019-02-21T05:51:30.193Z,99655.12
2019-02-21T05:54:38.778Z,99657.14
2019-02-21T05:57:37.600Z,99656.81
2019-02-21T06:00:40.873Z,99666.38
2019-02-21T06:03:42.549Z,99665.55
2019-02-21T06:06:48.100Z,99673.31
2019-02-21T06:09:56.317Z,99668.66
2019-02-21T06:13:04.890Z,99674.64
2019-02-21T06:16:13.348Z,99683.52
2019-02-21T06:19:20.523Z,99678.05
2019-02-21T06:22:28.715Z,99680.13
2019-02-21T06:25:51.099Z,99680.79
2019-02-21T06:28:48.483Z,99691.30
2019-02-21T06:31:37.949Z,99690.44
2019-02-21T06:34:27.506Z,99698.00
2019-02-21T06:37:16.866Z,99694.80
2019-02-21T06:40:06.375Z,99693.45
2019-02-21T06:42:55.809Z,99705.41
2019-02-21T06:45:45.052Z,99703.86
2019-02-21T06:48:34.959Z,99705.14
2019-02-21T06:51:24.265Z,99699.13
2019-02-21T06:54:13.862Z,99698.89
2019-02-21T06:57:03.459Z,99701.30
2019-02-21T06:59:53.833Z,99708.17
2019-02-21T07:02:43.239Z,99715.54
2019-02-21T07:05:36.793Z,99709.70
2019-02-21T07:08:25.311Z,99704.48
2019-02-21T07:11:14.603Z,99711.80
2019-02-21T07:14:04.213Z,99713.33
2019-02-21T07:16:53.780Z,99720.98
2019-02-21T07:19:43.342Z,99726.82
2019-02-21T07:22:34.690Z,99729.88
2019-02-21T07:25:37.457Z,99733.06
2019-02-21T07:28:27.867Z,99717.09
2019-02-21T07:31:28.172Z,99728.55
2019-02-21T07:34:08.816Z,99723.11
2019-02-21T07:36:58.425Z,99728.28
2019-02-21T07:39:50.833Z,99722.84
2019-02-21T07:42:39.888Z,99724.59
2019-02-21T07:45:29.268Z,99708.80
2019-02-21T07:48:19.167Z,99725.41
2019-02-21T07:51:08.597Z,99718.66
2019-02-21T07:53:58.070Z,99719.48
2019-02-21T07:56:47.591Z,99726.91
2019-02-21T07:59:37.229Z,99725.88
2019-02-21T08:02:26.712Z,99722.55
2019-02-21T08:05:16.315Z,99719.78
2019-02-21T08:08:06.020Z,99722.23
2019-02-21T08:10:55.332Z,99722.48
2019-02-21T08:13:44.530Z,99723.77
2019-02-21T08:16:33.831Z,99723.66
2019-02-21T08:19:23.127Z,99719.50
2019-02-21T08:22:12.618Z,99720.76
2019-02-21T08:25:02.377Z,99720.25
2019-02-21T08:27:52.002Z,99711.42
2019-02-21T08:30:41.189Z,99707.32
2019-02-21T08:33:40.191Z,99710.72
2019-02-21T08:36:29.669Z,99712.98
2019-02-21T08:39:19.273Z,99715.44
2019-02-21T08:42:08.713Z,99713.91
2019-02-21T08:44:58.031Z,99719.94
2019-02-21T08:47:47.356Z,99720.75
2019-02-21T08:50:37.024Z,99721.77
2019-02-21T08:53:28.181Z,99723.89
2019-02-21T08:56:18.009Z,99716.14
2019-02-21T08:59:07.456Z,99718.47
2019-02-21T09:01:56.639Z,99726.44
2019-02-21T09:04:45.919Z,99730.03
2019-02-21T09:07:35.235Z,99733.92
2019-02-21T09:10:27.463Z,99732.73
2019-02-21T09:13:15.834Z,99720.38
2019-02-21T09:16:05.545Z,99729.77
2019-02-21T09:18:55.272Z,99726.16
2019-02-21T09:21:44.867Z,99727.41
2019-02-21T09:24:39.976Z,99733.86
2019-02-21T09:27:25.057Z,99739.77
2019-02-21T09:30:16.533Z,99741.30
2019-02-21T09:33:16.664Z,99739.94
2019-02-21T09:35:57.109Z,99741.58
2019-02-21T09:38:46.435Z,99742.47
2019-02-21T09:41:36.169Z,99736.28
2019-02-21T09:44:27.360Z,99747.95
2019-02-21T09:47:16.544Z,99749.06
2019-02-21T09:50:05.877Z,99746.06
2019-02-21T09:52:55.121Z,99745.17
2019-02-21T09:55:44.698Z,99751.78
2019-02-21T09:58:34.908Z,99753.02
2019-02-21T10:01:24.832Z,99761.99
2019-02-21T10:04:14.419Z,99751.94
2019-02-21T10:07:04.076Z,99765.98
2019-02-21T10:09:53.523Z,99759.19
2019-02-21T10:12:43.239Z,99762.05
2019-02-21T10:15:32.548Z,99756.41
2019-02-21T10:18:22.332Z,99747.78
2019-02-21T10:21:12.665Z,99739.73
2019-02-21T10:24:02.559Z,99748.70
2019-02-21T10:26:51.867Z,99754.55
2019-02-21T10:29:41.764Z,99750.97
2019-02-21T10:32:31.170Z,99748.52
2019-02-21T10:35:20.626Z,99751.64
2019-02-21T10:38:10.276Z,99746.33
2019-02-21T10:40:59.877Z,99745.67
2019-02-21T10:43:49.412Z,99745.35
2019-02-21T10:46:38.962Z,99744.86
2019-02-21T10:49:28.475Z,99747.38
2019-02-21T10:52:17.779Z,99736.92
2019-02-21T10:55:07.686Z,99729.34
2019-02-21T10:57:57.137Z,99714.88
2019-02-21T11:00:46.563Z,99711.59
2019-02-21T11:03:36.231Z,99711.59
2019-02-21T11:06:25.611Z,99701.19
2019-02-21T11:09:21.917Z,99693.99
2019-02-21T11:12:11.952Z,99693.99
2019-02-21T11:15:01.275Z,99692.12
2019-02-21T11:17:50.895Z,99685.80
2019-02-21T11:20:40.610Z,99682.88
2019-02-21T11:23:30.116Z,99681.79
2019-02-21T11:26:19.365Z,99676.69
2019-02-21T11:29:09.296Z,99674.42
2019-02-21T11:31:58.670Z,99679.77
2019-02-21T11:34:47.902Z,99675.14
2019-02-21T11:37:43.224Z,99677.15
2019-02-21T11:40:28.123Z,99671.98
2019-02-21T11:43:17.626Z,99667.17
2019-02-21T11:46:07.691Z,99663.90
2019-02-21T11:48:57.101Z,99666.49
2019-02-21T11:51:48.157Z,99673.45
2019-02-21T11:54:37.527Z,99661.91
2019-02-21T11:57:27.643Z,99658.45
2019-02-21T12:00:22.259Z,99658.66
2019-02-21T12:03:11.575Z,99652.83
2019-02-21T12:06:01.108Z,99646.64
2019-02-21T12:08:50.532Z,99642.50
2019-02-21T12:11:39.833Z,99635.13
2019-02-21T12:14:29.124Z,99632.33
2019-02-21T12:17:18.677Z,99633.22
2019-02-21T12:20:10.230Z,99619.58
2019-02-21T12:22:59.894Z,99618.46
2019-02-21T12:25:49.461Z,99623.34
2019-02-21T12:28:38.642Z,99614.64
2019-02-21T12:31:28.163Z,99614.37
2019-02-21T12:34:17.415Z,99617.59
2019-02-21T12:37:07.273Z,99613.91
2019-02-21T12:39:56.704Z,99603.86
2019-02-21T12:42:46.285Z,99608.38
2019-02-21T12:45:35.938Z,99604.09
2019-02-21T12:48:25.446Z,99608.60
2019-02-21T12:51:14.850Z,99603.55
2019-02-21T12:54:04.217Z,99608.64
2019-02-21T12:56:53.686Z,99602.31
2019-02-21T12:59:43.309Z,99601.25
2019-02-21T13:02:32.813Z,99597.72
2019-02-21T13:05:22.500Z,99598.27
2019-02-21T13:08:12.218Z,99605.88
2019-02-21T13:11:01.594Z,99599.45
2019-02-21T13:13:51.200Z,99592.48
2019-02-21T13:16:40.798Z,99591.94
2019-02-21T13:19:30.384Z,99594.39
2019-02-21T13:22:20.524Z,99598.55
2019-02-21T13:25:13.139Z,99597.29
2019-02-21T13:28:02.999Z,99595.30
2019-02-21T13:30:52.406Z,99595.30
2019-02-21T13:33:41.912Z,99601.74
2019-02-21T13:36:33.861Z,99601.95
2019-02-21T13:39:22.520Z,99595.86
2019-02-21T13:42:12.275Z,99590.36
2019-02-21T13:45:01.494Z,99582.25
2019-02-21T13:47:51.002Z,99583.66
2019-02-21T13:50:40.559Z,99583.19
2019-02-21T13:53:30.260Z,99580.04
2019-02-21T13:56:19.946Z,99578.45
2019-02-21T13:59:09.415Z,99582.72
2019-02-21T14:01:59.247Z,99585.66
2019-02-21T14:04:48.513Z,99573.95
2019-02-21T14:07:37.844Z,99567.88
2019-02-21T14:10:27.108Z,99570.71
2019-02-21T14:13:16.422Z,99569.55
2019-02-21T14:16:05.934Z,99571.53
2019-02-21T14:18:55.448Z,99570.33
2019-02-21T14:21:45.022Z,99562.72
2019-02-21T14:24:37.186Z,99566.55
2019-02-21T14:27:26.037Z,99563.82
2019-02-21T14:30:17.071Z,99565.30
2019-02-21T14:33:08.154Z,99565.80
2019-02-21T14:35:57.717Z,99570.76
2019-02-21T14:38:47.424Z,99561.86
2019-02-21T14:41:36.767Z,99563.25
2019-02-21T14:44:26.185Z,99567.77
2019-02-21T14:47:15.374Z,99565.73
2019-02-21T14:50:06.670Z,99568.17
2019-02-21T14:52:55.978Z,99564.20
2019-02-21T14:55:45.496Z,99562.81
2019-02-21T14:58:35.063Z,99560.41
2019-02-21T15:01:24.399Z,99554.16
2019-02-21T15:04:14.096Z,99551.41
2019-02-21T15:07:06.444Z,99551.41
2019-02-21T15:09:54.923Z,99554.86
2019-02-21T15:12:44.241Z,99554.86
2019-02-21T15:15:33.541Z,99559.59
2019-02-21T15:18:22.865Z,99561.14
2019-02-21T15:21:14.881Z,99562.73
2019-02-21T15:24:04.176Z,99560.88
2019-02-21T15:26:53.631Z,99553.02
2019-02-21T15:29:43.283Z,99550.42
2019-02-21T15:32:32.414Z,99551.23
2019-02-21T15:35:21.969Z,99550.35
2019-02-21T15:38:19.628Z,99545.88
2019-02-21T15:41:02.911Z,99545.05
2019-02-21T15:43:52.402Z,99544.34
2019-02-21T15:46:42.126Z,99552.30
2019-02-21T15:49:33.512Z,99542.72
2019-02-21T15:52:23.041Z,99552.34
2019-02-21T15:55:13.666Z,99553.84
2019-02-21T15:58:04.493Z,99440.80
2019-02-21T16:00:54.176Z,99551.89
2019-02-21T16:03:43.656Z,99545.69
2019-02-21T16:06:33.338Z,99554.59
2019-02-21T16:09:25.154Z,99554.83
2019-02-21T16:12:14.630Z,99559.98
2019-02-21T16:15:04.806Z,99554.20
2019-02-21T16:17:54.393Z,99559.80
2019-02-21T16:20:43.980Z,99562.30
2019-02-21T16:23:33.609Z,99557.63
2019-02-21T16:26:23.190Z,99559.58
2019-02-21T16:29:13.101Z,99565.74
2019-02-21T16:32:02.497Z,99529.52
2019-02-21T16:34:52.002Z,99567.01
2019-02-21T16:37:42.041Z,99562.94
2019-02-21T16:40:31.452Z,99567.45
2019-02-21T16:43:20.788Z,99571.61
2019-02-21T16:46:10.233Z,99572.41
2019-02-21T16:48:59.508Z,99571.30
2019-02-21T16:51:49.132Z,99572.13
2019-02-21T16:54:38.992Z,99563.75
2019-02-21T16:57:28.329Z,99566.78
2019-02-21T17:00:18.209Z,99566.64
2019-02-21T17:03:07.656Z,99562.69
2019-02-21T17:05:57.371Z,99564.19
2019-02-21T17:08:46.915Z,99562.16
2019-02-21T17:11:36.446Z,99573.27
2019-02-21T17:14:26.404Z,99565.13
2019-02-21T17:17:15.809Z,99571.43
2019-02-21T17:20:06.535Z,99570.30
2019-02-21T17:22:56.214Z,99565.48
2019-02-21T17:25:47.704Z,99582.09
2019-02-21T17:28:37.088Z,99569.05
2019-02-21T17:31:28.323Z,99576.22
2019-02-21T17:34:17.798Z,99577.34
2019-02-21T17:37:07.211Z,99572.22
2019-02-21T17:39:57.017Z,99573.79
2019-02-21T17:42:46.670Z,99568.38
2019-02-21T17:45:36.150Z,99571.25
2019-02-21T17:48:25.718Z,99566.59
2019-02-21T17:51:14.993Z,99568.86
2019-02-21T17:54:04.661Z,99567.53
2019-02-21T17:56:54.114Z,99559.69
2019-02-21T17:59:43.948Z,99563.81
2019-02-21T18:02:33.281Z,99563.81
2019-02-21T18:05:22.539Z,99555.83
2019-02-21T18:08:12.204Z,99556.88
2019-02-21T18:11:02.148Z,99554.92
2019-02-21T18:13:51.404Z,99548.70
2019-02-21T18:16:41.176Z,99548.70
2019-02-21T18:19:30.721Z,99540.70
2019-02-21T18:22:20.009Z,99531.23
2019-02-21T18:25:28.321Z,99534.05
2019-02-21T18:28:17.719Z,99532.63
2019-02-21T18:31:07.306Z,99530.33
2019-02-21T18:33:56.567Z,99526.45
2019-02-21T18:36:46.145Z,99519.72
2019-02-21T18:39:35.916Z,99521.25
2019-02-21T18:42:25.538Z,99518.73
2019-02-21T18:45:15.102Z,99512.52
2019-02-21T18:48:04.399Z,99516.94
2019-02-21T18:50:53.990Z,99506.44
2019-02-21T18:53:43.681Z,99495.40
2019-02-21T18:56:33.268Z,99509.14
2019-02-21T18:59:31.457Z,99504.56
2019-02-21T19:02:16.112Z,99501.36
2019-02-21T19:05:06.177Z,99500.84
2019-02-21T19:08:03.296Z,99502.91
2019-02-21T19:10:46.719Z,99491.36
2019-02-21T19:13:37.150Z,99490.97
2019-02-21T19:16:26.866Z,99492.84
2019-02-21T19:19:16.391Z,99492.23
2019-02-21T19:22:06.218Z,99495.70
2019-02-21T19:24:55.918Z,99491.24
2019-02-21T19:27:45.763Z,99489.01
2019-02-21T19:30:48.486Z,99486.78
2019-02-21T19:33:38.185Z,99494.14
2019-02-21T19:36:27.550Z,99503.37
2019-02-21T19:39:16.963Z,99497.45
2019-02-21T19:42:06.508Z,99511.58
2019-02-21T19:44:55.979Z,99509.20
2019-02-21T19:47:45.694Z,99517.50
2019-02-21T19:50:35.045Z,99524.15
2019-02-21T19:53:24.334Z,99524.15
2019-02-21T19:56:13.675Z,99520.16
2019-02-21T19:59:02.995Z,99521.80
2019-02-21T20:01:53.256Z,99525.05
2019-02-21T20:04:42.702Z,99528.34
2019-02-21T20:07:32.250Z,99524.94
2019-02-21T20:10:21.886Z,99535.47
2019-02-21T20:13:11.461Z,99534.14
2019-02-21T20:16:00.790Z,99539.15
2019-02-21T20:18:50.153Z,99535.78
2019-02-21T20:21:39.714Z,99542.20
2019-02-21T20:24:29.111Z,99543.63
2019-02-21T20:27:18.702Z,99531.45
2019-02-21T20:30:09.813Z,99542.60
2019-02-21T20:32:59.407Z,99537.41
2019-02-21T20:35:48.660Z,99533.45
2019-02-21T20:38:38.202Z,99534.78
2019-02-21T20:41:27.811Z,99533.14
2019-02-21T20:44:19.231Z,99528.44
2019-02-21T20:47:10.301Z,99529.45
2019-02-21T20:49:59.545Z,99520.73
2019-02-21T20:52:49.203Z,99520.14
2019-02-21T20:55:43.664Z,99520.01
2019-02-21T20:58:29.970Z,99527.91
2019-02-21T21:01:20.375Z,99522.23
2019-02-21T21:04:09.699Z,99517.75
2019-02-21T21:06:59.109Z,99507.84
2019-02-21T21:09:48.745Z,99510.62
2019-02-21T21:12:38.029Z,99520.36
2019-02-21T21:15:27.299Z,99519.17
2019-02-21T21:18:16.658Z,99509.97
2019-02-21T21:21:06.048Z,99518.94
2019-02-21T21:23:55.304Z,99519.45
2019-02-21T21:26:45.007Z,99518.45
2019-02-21T21:29:36.148Z,99517.52
2019-02-21T21:32:25.313Z,99525.00
2019-02-21T21:35:14.645Z,99518.03
2019-02-21T21:38:04.151Z,99521.28
2019-02-21T21:40:53.730Z,99521.34
2019-02-21T21:43:43.162Z,99514.55
2019-02-21T21:46:32.739Z,99520.21
2019-02-21T21:49:22.164Z,99523.27
2019-02-21T21:52:11.495Z,99523.27
2019-02-21T21:55:00.875Z,99522.34
2019-02-21T21:57:50.124Z,99521.23
2019-02-21T22:00:39.382Z,99523.10
2019-02-21T22:03:28.805Z,99522.42
2019-02-21T22:06:19.828Z,99525.62
2019-02-21T22:09:09.288Z,99529.15
2019-02-21T22:11:58.831Z,99526.11
2019-02-21T22:14:48.327Z,99540.78
2019-02-21T22:17:37.858Z,99543.37
2019-02-21T22:20:27.470Z,99541.31
2019-02-21T22:23:17.107Z,99546.63
2019-02-21T22:26:06.530Z,99536.00
2019-02-21T22:28:56.052Z,99534.48
2019-02-21T22:31:45.674Z,99542.97
2019-02-21T22:34:35.241Z,99543.52
2019-02-21T22:37:24.704Z,99547.50
2019-02-21T22:40:14.397Z,99542.18
2019-02-21T22:43:03.915Z,99544.84
2019-02-21T22:45:53.635Z,99547.03
2019-02-21T22:48:47.414Z,99541.53
2019-02-21T22:51:36.086Z,99540.30
2019-02-21T22:54:25.383Z,99536.81
2019-02-21T22:57:14.754Z,99533.09
2019-02-21T23:00:06.082Z,99536.88
2019-02-21T23:02:55.734Z,99535.34
2019-02-21T23:06:08.525Z,99532.16
2019-02-21T23:08:58.125Z,99526.11
2019-02-21T23:11:47.600Z,99527.58
2019-02-21T23:14:37.157Z,99529.61
2019-02-21T23:17:26.703Z,99531.32
2019-02-21T23:20:16.032Z,99516.30
2019-02-21T23:23:05.583Z,99523.69
2019-02-21T23:25:55.101Z,99514.86
2019-02-21T23:28:44.342Z,99519.17
2019-02-21T23:31:33.834Z,99523.75
2019-02-21T23:34:33.354Z,99515.12
2019-02-21T23:37:22.889Z,99514.10
2019-02-21T23:40:12.462Z,99505.78
2019-02-21T23:43:01.921Z,99507.67
2019-02-21T23:45:51.207Z,99505.41
2019-02-21T23:48:40.807Z,99509.88
2019-02-21T23:51:30.071Z,99504.86
2019-02-21T23:54:19.364Z,99503.53
2019-02-21T23:57:08.842Z,99502.79
2019-02-21T23:59:58.209Z,99497.86
